Tiempo atmosférico en la estación meteorológica de Pozuelo De Tabara, Zamora (711 m.)



Fecha
DESCASC
Temp. máxima en grados centígrados (hora)
DESCASC
Temp. mínima en grados centígrados (hora)
DESCASC
Temp. media en grados centígrados
DESCASC
Racha de viento máxima en m/sg (hora)
DESCASC
Velocidad máxima media en intervalos de 10 minutos(hora)
DESCASC
Precipitaciones diarias en mm
DESCASC
Precipitaciones de 00:00 a 06:00 en mm
DESCASC
Precipitaciones de 06:00 a 12:00 en mm
DESCASC
Precipitaciones de 12:00 a 18:00 en mm
DESCASC
Precipitaciones de 18:00 a 24:00 en mm
DESCASC
20-09-2018 30.3 (15:20) 10.5 (08:10) 20.4 13.89 (16:00) 9.44 (15:40) 0 0 0 0 0
19-09-2018 30.4 (17:20) 11.1 (07:20) 20.8 8.61 (16:10) 4.72 (14:50) 0 0 0 0 0
18-09-2018 29.1 (16:50) 13.5 (08:20) 21.3 11.94 (16:00) 6.94 (17:20) 0 0 0 0 0
17-09-2018 30.3 (15:40) 12.7 (08:10) 21.5 13.06 (19:30) 8.61 (19:30) 0 0 0 0 0
16-09-2018 30.7 (15:30) 13.8 (00:00) 22.3 10.28 (15:40) 6.11 (15:50) 0 0 0 0 0
15-09-2018 30.5 (17:30) 14.9 (00:00) 22.7 6.11 (09:40) 4.17 (10:40) 0 0 0 0 0
14-09-2018 30.8 (17:30) 13.4 (00:00) 22.1 7.22 (00:40) 3.89 (10:30) 0 0 0 0 0
13-09-2018 31.1 (18:00) 12.5 (00:00) 21.8 7.22 (16:40) 4.17 (19:00) 0 0 0 0 0
12-09-2018 31.1 (17:10) 13 (00:00) 22.1 9.44 (17:10) 5.28 (18:10) 0 0 0 0 0
11-09-2018 29.6 (17:40) 12.1 (00:00) 20.9 5.83 (16:00) 3.61 (03:20) 0 0 0 0 0
10-09-2018 27.6 (17:50) 11.8 (00:00) 19.7 7.78 (17:00) 5 (17:00) 0 0 0 0 0
09-09-2018 27.8 (18:00) 11.6 (00:00) 19.7 7.22 (19:20) 4.72 (19:20) 0.4 0.2 0.2 0 0
08-09-2018 27.6 (17:00) 12.5 (00:00) 20.1 14.17 (21:30) 10 (21:30) 0 0 0 0 0
07-09-2018 26 (18:00) 11.4 (00:00) 18.7 9.44 (12:50) 5.83 (11:20) 0 0 0 0 0
06-09-2018 25.3 (18:00) 12.1 (00:00) 18.7 8.89 (12:00) 6.11 (12:00) 0 0 0 0 0
05-09-2018 24.4 (17:10) 14.4 (00:00) 19.4 11.67 (19:00) 6.94 (19:00) 0.2 0 0.2 0 0
04-09-2018 27 (18:30) 11.9 (00:00) 19.4 10 (23:30) 6.39 (23:30) 0 0 0 0 0
03-09-2018 29.8 (18:10) 17.2 (00:00) 23.5 16.67 (20:50) 10.28 (21:20) 5.4 0 1.4 0 4
02-09-2018 34.5 (17:30) 15.1 (00:00) 24.8 10.83 (22:00) 6.11 (22:40) 0 0 0 0 0
01-09-2018 31.9 (18:30) 13.7 (00:00) 22.8 6.94 (14:00) 4.17 (10:20) -- 0 0 0 --
31-08-2018 30.3 (17:20) 14 (00:00) 22.1 7.5 (13:00) 4.17 (10:50) 0 0 0 0 0
30-08-2018 30.6 (17:40) 13.5 (00:00) 22.1 9.72 (00:10) 5.28 (00:10) 0 0 0 0 0
29-08-2018 29.6 (17:40) 12.7 (00:00) 21.2 8.06 (23:59) 5 (23:40) 0 0 0 0 0
28-08-2018 31.1 (17:20) 16.3 (00:00) 23.7 11.94 (15:50) 7.22 (17:50) 0 0 0 0 0
27-08-2018 32.9 (16:10) 13.2 (00:00) 23.1 11.67 (18:50) 8.61 (18:50) 0 0 0 0 0
26-08-2018 31.4 (18:20) 10.4 (00:00) 20.9 7.5 (16:50) 5.28 (18:40) 0 0 0 0 0
25-08-2018 27.7 (18:10) 11.4 (00:00) 19.6 7.22 (00:40) 4.72 (01:40) 0 0 0 0 0
24-08-2018 29.7 (18:30) 11.8 (00:00) 20.8 7.22 (16:50) 4.72 (20:20) 0 0 0 0 0
23-08-2018 33.7 (18:30) 14.7 (00:00) 24.2 10 (19:00) 6.94 (19:00) 0 0 0 0 0

Gráficas

Temp. máximas Temp. mínimas Temp. medias Precipitaciones Rachas de viento máximas Velocidades máximas media en intervalos de 10 minutos

Datos horarios

Fecha y hora oficial Temperatura (ºC) Velocidad del viento (km/h) Dirección del viento Racha (km/h) Dirección de racha Precipitación (mm) Presión (hPa) Tendencia (hPa) Humedad (%)
2018-09-21 23:00:00 17.3 6 Noroeste 15 Noroeste 0 -- -- 49
2018-09-21 22:00:00 17.9 8 Noroeste 10 Noroeste 0 -- -- 46
2018-09-21 21:00:00 20.6 6 Noroeste 9 Noroeste 0 -- -- 39
2018-09-21 20:00:00 25.1 6 Sudeste 10 Nordeste 0 -- -- 32
2018-09-21 19:00:00 26.6 6 Este 13 Nordeste 0 -- -- 27
2018-09-21 18:00:00 27.5 9 Este 15 Nordeste 0 -- -- 26
2018-09-21 17:00:00 27.9 5 Norte 17 Este 0 -- -- 26
2018-09-21 16:00:00 26.5 4 Norte 15 Nordeste 0 -- -- 27
2018-09-21 15:00:00 25.8 4 Este 17 Este 0 -- -- 29
2018-09-21 14:00:00 24.3 8 Sur 18 Sudeste 0 -- -- 36
2018-09-21 13:00:00 22.3 8 Este 16 Nordeste 0 -- -- 43
2018-09-21 12:00:00 21.6 6 Este 15 Este 0 -- -- 45
2018-09-21 11:00:00 19 2 Noroeste 7 Este 0 -- -- 51
2018-09-21 10:00:00 16.7 5 Norte 10 Noroeste 0 -- -- 57
2018-09-21 09:00:00 12.3 3 Nordeste 7 Nordeste 0 -- -- 71
2018-09-21 08:00:00 12.1 0 Calma 11 Sudoeste 0 -- -- 68
2018-09-21 07:00:00 12.3 11 Oeste 12 Oeste 0 -- -- 68
2018-09-21 06:00:00 12.1 3 Oeste 10 Sudoeste 0 -- -- 67
2018-09-21 05:00:00 12.9 0 Calma 11 Oeste 0 -- -- 63
2018-09-21 04:00:00 14.1 6 Oeste 12 Oeste 0 -- -- 61
2018-09-21 03:00:00 16 3 Sudeste 16 Noroeste 0 -- -- 54
2018-09-21 02:00:00 18.5 9 Noroeste 21 Oeste 0 -- -- 48
2018-09-21 01:00:00 18.8 14 Noroeste 21 Oeste 0 -- -- 46
2018-09-21 00:00:00 18.1 7 Noroeste 14 Oeste 0 -- -- 42
2018-09-20 23:00:00 18.8 9 Noroeste 14 Noroeste 0 -- -- 42
2018-09-20 22:00:00 20.8 6 Oeste 12 Oeste 0 -- -- 36
2018-09-20 21:00:00 22.8 10 Noroeste 14 Noroeste 0 -- -- 39
2018-09-20 20:00:00 26.3 12 Oeste 27 Oeste 0 -- -- 34
2018-09-20 19:00:00 28.6 22 Oeste 38 Oeste 0 -- -- 32
2018-09-20 18:00:00 29.8 27 Oeste 46 Oeste 0 -- -- 29
2018-09-20 17:00:00 30.1 28 Oeste 46 Sudoeste 0 -- -- 30
2018-09-20 16:00:00 30 31 Sudoeste 50 Sudoeste 0 -- -- 28
2018-09-20 15:00:00 30 27 Oeste 48 Sudoeste 0 -- -- 28
2018-09-20 14:00:00 28.6 14 Sudoeste 30 Sudoeste 0 -- -- 33
2018-09-20 13:00:00 25.8 9 Este 15 Este 0 -- -- 37
2018-09-20 12:00:00 23.1 5 Nordeste 9 Nordeste 0 -- -- 42
2018-09-20 11:00:00 20.1 3 Este 8 Nordeste 0 -- -- 48
2018-09-20 10:00:00 16.5 3 Sudeste 5 Sudeste 0 -- -- 58
2018-09-20 09:00:00 12.1 2 Sur 10 Oeste 0 -- -- 71
2018-09-20 08:00:00 10.6 7 Noroeste 9 Noroeste 0 -- -- 77
2018-09-20 07:00:00 11.1 4 Oeste 11 Oeste 0 -- -- 74
2018-09-20 06:00:00 11.8 9 Oeste 10 Oeste 0 -- -- 71
2018-09-20 05:00:00 12.3 6 Noroeste 8 Oeste 0 -- -- 68
2018-09-20 04:00:00 13.3 3 Noroeste 5 Oeste 0 -- -- 63
2018-09-20 03:00:00 14.4 3 Nordeste 4 Sudoeste 0 -- -- 60
2018-09-20 02:00:00 15.9 3 Oeste 8 Oeste 0 -- -- 56
2018-09-20 01:00:00 17.5 5 Oeste 15 Noroeste 0 -- -- 53
2018-09-20 00:00:00 18.2 4 Noroeste 10 Oeste 0 -- -- 52
2018-09-19 23:00:00 19.8 12 Noroeste 15 Noroeste 0 -- -- 48
2018-09-19 22:00:00 20.7 11 Noroeste 15 Noroeste 0 -- -- 41
2018-09-19 21:00:00 24.2 13 Oeste 18 Oeste 0 -- -- 33
2018-09-19 20:00:00 27.8 13 Oeste 20 Oeste 0 -- -- 32
2018-09-19 19:00:00 29.9 10 Sudoeste 23 Sudoeste 0 -- -- 26
2018-09-19 18:00:00 30.1 15 Sudoeste 24 Sudoeste 0 -- -- 25
2018-09-19 17:00:00 30.1 8 Oeste 31 Sur 0 -- -- 28
2018-09-19 16:00:00 29.3 9 Noroeste 26 Sudoeste 0 -- -- 33
2018-09-19 15:00:00 28.5 16 Sudoeste 25 Sudoeste 0 -- -- 35
2018-09-19 14:00:00 26.9 10 Este 20 Este 0 -- -- 40
2018-09-19 13:00:00 25.3 8 Sudeste 21 Sudeste 0 -- -- 45
2018-09-19 12:00:00 23 4 Este 11 Este 0 -- -- 50
2018-09-19 11:00:00 20.9 4 Nordeste 8 Nordeste 0 -- -- 54
2018-09-19 10:00:00 17.6 4 Norte 8 Noroeste 0 -- -- 64
2018-09-19 09:00:00 13.9 4 Noroeste 14 Oeste 0 -- -- 81
2018-09-19 08:00:00 11.4 11 Noroeste 14 Noroeste 0 -- -- 87
2018-09-19 07:00:00 11.2 4 Sudoeste 6 Sudoeste 0 -- -- 81
2018-09-19 06:00:00 12.2 0 Calma 8 Oeste 0 -- -- 78
2018-09-19 05:00:00 12.5 7 Noroeste 9 Oeste 0 -- -- 78
2018-09-19 04:00:00 12.8 4 Noroeste 12 Nordeste 0 -- -- 78
2018-09-19 03:00:00 13.9 0 Calma 9 Sudoeste 0 -- -- 75
2018-09-19 02:00:00 14.8 6 Este 13 Oeste 0 -- -- 72
2018-09-19 01:00:00 15.2 6 Noroeste 10 Norte 0 -- -- 66
2018-09-19 00:00:00 16.7 6 Oeste 10 Oeste 0 -- -- 58
2018-09-18 23:00:00 17.9 5 Oeste 12 Noroeste 0 -- -- 52
2018-09-18 22:00:00 19.5 8 Noroeste 13 Noroeste 0 -- -- 46
2018-09-18 21:00:00 22.2 10 Oeste 14 Oeste 0 -- -- 39
2018-09-18 20:00:00 26 12 Oeste 24 Oeste 0 -- -- 31
2018-09-18 19:00:00 27.9 18 Oeste 29 Oeste 0 -- -- 28
2018-09-18 18:00:00 28.5 21 Oeste 36 Oeste 0 -- -- 28
2018-09-18 17:00:00 28.7 21 Oeste 38 Oeste 0 -- -- 30
2018-09-18 16:00:00 28.8 23 Sudoeste 43 Sudoeste 0 -- -- 33
2018-09-18 15:00:00 28.1 22 Oeste 38 Oeste 0 -- -- 34
2018-09-18 14:00:00 27.5 17 Sudoeste 32 Oeste 0 -- -- 35
2018-09-18 13:00:00 26.4 13 Sudoeste 24 Sudoeste 0 -- -- 36
2018-09-18 12:00:00 25.3 11 Sudoeste 19 Oeste 0 -- -- 35
2018-09-18 11:00:00 23 4 Nordeste 10 Nordeste 0 -- -- 44
2018-09-18 10:00:00 20.1 4 Norte 9 Oeste 0 -- -- 52
2018-09-18 09:00:00 15 3 Sur 6 Sur 0 -- -- 72
2018-09-18 08:00:00 13.8 3 Oeste 11 Oeste 0 -- -- 75
2018-09-18 07:00:00 14.2 9 Noroeste 12 Oeste 0 -- -- 75
2018-09-18 06:00:00 14.8 7 Noroeste 10 Oeste 0 -- -- 74
2018-09-18 05:00:00 16.6 4 Sur 12 Nordeste 0 -- -- 70
2018-09-18 04:00:00 18.5 4 Oeste 13 Este 0 -- -- 63
2018-09-18 03:00:00 20.1 4 Sur 14 Oeste 0 -- -- 56
2018-09-18 02:00:00 19.4 4 Oeste 9 Noroeste 0 -- -- 57
2018-09-18 01:00:00 20.8 8 Noroeste 14 Noroeste 0 -- -- 53
2018-09-18 00:00:00 21.2 10 Noroeste 22 Oeste 0 -- -- 52
2018-09-17 23:00:00 21.9 12 Oeste 20 Oeste 0 -- -- 50
2018-09-17 22:00:00 21.9 11 Oeste 15 Oeste 0 -- -- 54
2018-09-17 21:00:00 23.6 11 Oeste 23 Oeste 0 -- -- 47
2018-09-17 20:00:00 25.2 20 Oeste 47 Sudoeste 0 -- -- 38
2018-09-17 19:00:00 26.4 19 Sur 34 Sudoeste 0 -- -- 41
2018-09-17 18:00:00 28.8 12 Oeste 24 Oeste 0 -- -- 31
2018-09-17 17:00:00 30.1 10 Oeste 27 Sudoeste 0 -- -- 30
2018-09-17 16:00:00 30.2 17 Sudoeste 29 Oeste 0 -- -- 30
2018-09-17 15:00:00 29.9 10 Sur 27 Sudoeste 0 -- -- 32
2018-09-17 14:00:00 28.3 9 Este 20 Este 0 -- -- 34
2018-09-17 13:00:00 26.5 5 Este 12 Sudeste 0 -- -- 40
2018-09-17 12:00:00 23.7 5 Este 14 Este 0 -- -- 44
2018-09-17 11:00:00 21 3 Norte 6 Norte 0 -- -- 49
2018-09-17 10:00:00 17.9 3 Norte 8 Noroeste 0 -- -- 56
2018-09-17 09:00:00 14.7 4 Noroeste 8 Noroeste 0 -- -- 68
2018-09-17 08:00:00 12.8 0 Calma 5 Noroeste 0 -- -- 71
2018-09-17 07:00:00 13.4 6 Noroeste 12 Oeste 0 -- -- 70
2018-09-17 06:00:00 13.2 9 Noroeste 11 Noroeste 0 -- -- 70
2018-09-17 05:00:00 14 2 Oeste 12 Noroeste 0 -- -- 66
2018-09-17 04:00:00 14.4 9 Oeste 13 Oeste 0 -- -- 65
2018-09-17 03:00:00 14.9 10 Oeste 12 Oeste 0 -- -- 64
2018-09-17 02:00:00 15.7 4 Noroeste 6 Noroeste 0 -- -- 59
2018-09-17 01:00:00 17.4 0 Calma 9 Oeste 0 -- -- 53
2018-09-17 00:00:00 18.2 7 Oeste 8 Oeste 0 -- -- 52
2018-09-16 23:00:00 21.6 6 Nordeste 9 Noroeste 0 -- -- 44
2018-09-16 22:00:00 22.4 7 Noroeste 9 Oeste 0 -- -- 41
2018-09-16 21:00:00 23.4 9 Oeste 18 Noroeste 0 -- -- 38
2018-09-16 20:00:00 27.8 12 Noroeste 21 Noroeste 0 -- -- 31
2018-09-16 19:00:00 29.4 15 Oeste 23 Oeste 0 -- -- 30
2018-09-16 18:00:00 30.2 16 Oeste 25 Oeste 0 -- -- 28
2018-09-16 17:00:00 30.5 17 Oeste 33 Oeste 0 -- -- 29
2018-09-16 16:00:00 30.4 20 Oeste 37 Oeste 0 -- -- 30
2018-09-16 15:00:00 30.6 18 Oeste 34 Noroeste 0 -- -- 30
2018-09-16 14:00:00 29.6 17 Oeste 28 Oeste 0 -- -- 30
2018-09-16 13:00:00 28 18 Sudoeste 29 Sudoeste 0 -- -- 31
2018-09-16 12:00:00 25.9 14 Sudoeste 22 Sudoeste 0 -- -- 43
2018-09-16 11:00:00 23.2 4 Sur 9 Sudeste 0 -- -- 53
2018-09-16 10:00:00 19.1 2 Sur 5 Nordeste 0 -- -- 64
2018-09-16 09:00:00 14.9 0 Calma 13 Sudeste 0 -- -- 79
2018-09-16 08:00:00 13.9 7 Noroeste 10 Oeste 0 -- -- 82
2018-09-16 07:00:00 14 9 Noroeste 10 Oeste 0 -- -- 81
2018-09-16 06:00:00 14.6 4 Este 9 Este 0 -- -- 77
2018-09-16 05:00:00 14.9 3 Oeste 9 Este 0 -- -- 73
2018-09-16 04:00:00 15.7 6 Oeste 12 Sudeste 0 -- -- 70
2018-09-16 03:00:00 16.8 8 Nordeste 18 Este 0 -- -- 68
2018-09-16 02:00:00 17.8 5 Noroeste 10 Oeste 0 -- -- 61
2018-09-16 01:00:00 18.3 9 Oeste 11 Oeste 0 -- -- 60
2018-09-16 00:00:00 18.8 0 Calma 11 Norte 0 -- -- 59
2018-09-15 23:00:00 20.6 0 Calma 12 Noroeste 0 -- -- 54
2018-09-15 22:00:00 22.2 6 Noroeste 13 Oeste 0 -- -- 50
2018-09-15 21:00:00 23.8 6 Oeste 12 Sudoeste 0 -- -- 44
2018-09-15 20:00:00 28.1 6 Sur 13 Sudeste 0 -- -- 33
2018-09-15 19:00:00 29.2 6 Este 15 Sudeste 0 -- -- 31
2018-09-15 18:00:00 29.6 9 Este 19 Este 0 -- -- 31
2018-09-15 17:00:00 29.8 10 Nordeste 20 Sudeste 0 -- -- 32
2018-09-15 16:00:00 29.8 10 Este 20 Sudeste 0 -- -- 34
2018-09-15 15:00:00 28 7 Este 17 Este 0 -- -- 38
2018-09-15 14:00:00 25.8 8 Nordeste 17 Este 0 -- -- 46
2018-09-15 13:00:00 23.7 8 Nordeste 19 Nordeste 0 -- -- 51
2018-09-15 12:00:00 21.1 12 Nordeste 20 Nordeste 0 -- -- 59
2018-09-15 11:00:00 19 13 Nordeste 21 Nordeste 0 -- -- 66
2018-09-15 10:00:00 17.2 12 Nordeste 22 Nordeste 0 -- -- 72
2018-09-15 09:00:00 16 8 Norte 17 Norte 0 -- -- 79
2018-09-15 08:00:00 14.9 9 Norte 17 Norte 0 -- -- 83
2018-09-15 07:00:00 15.1 8 Norte 17 Norte 0 -- -- 82
2018-09-15 06:00:00 15.6 9 Norte 16 Norte 0 -- -- 83
2018-09-15 05:00:00 15.4 9 Norte 14 Norte 0 -- -- 86
2018-09-15 04:00:00 16.3 6 Norte 17 Norte 0 -- -- 83
2018-09-15 03:00:00 17 12 Norte 18 Norte 0 -- -- 81
2018-09-15 02:00:00 17.8 10 Nordeste 19 Nordeste 0 -- -- 77
2018-09-15 01:00:00 19.3 13 Nordeste 17 Este 0 -- -- 70
2018-09-15 00:00:00 18.4 8 Noroeste 13 Oeste 0 -- -- 61
2018-09-14 23:00:00 19.8 6 Oeste 13 Noroeste 0 -- -- 55
2018-09-14 22:00:00 21 7 Oeste 8 Noroeste 0 -- -- 53
2018-09-14 21:00:00 24.9 0 Calma 7 Noroeste 0 -- -- 43
2018-09-14 20:00:00 29.6 4 Oeste 12 Oeste 0 -- -- 32
2018-09-14 19:00:00 30.4 6 Oeste 21 Sudoeste 0 -- -- 31
2018-09-14 18:00:00 30.7 8 Oeste 19 Sudoeste 0 -- -- 30
2018-09-14 17:00:00 30.5 3 Sudeste 21 Este 0 -- -- 33
2018-09-14 16:00:00 28.9 7 Sudeste 15 Este 0 -- -- 36
2018-09-14 15:00:00 27.3 6 Este 18 Este 0 -- -- 38
2018-09-14 14:00:00 25 8 Nordeste 17 Nordeste 0 -- -- 46
2018-09-14 13:00:00 22.8 11 Este 19 Este 0 -- -- 52
2018-09-14 12:00:00 21 10 Nordeste 23 Nordeste 0 -- -- 59
2018-09-14 11:00:00 18.7 13 Nordeste 20 Nordeste 0 -- -- 66
2018-09-14 10:00:00 17.1 13 Nordeste 21 Norte 0 -- -- 72
2018-09-14 09:00:00 14.8 6 Norte 12 Norte 0 -- -- 84
2018-09-14 08:00:00 13.6 8 Noroeste 12 Norte 0 -- -- 85
2018-09-14 07:00:00 14 6 Norte 10 Norte 0 -- -- 85
2018-09-14 06:00:00 14.5 5 Norte 9 Norte 0 -- -- 83
2018-09-14 05:00:00 15.1 5 Norte 8 Nordeste 0 -- -- 79
2018-09-14 04:00:00 16.6 5 Norte 9 Nordeste 0 -- -- 74
2018-09-14 03:00:00 17.6 6 Nordeste 18 Norte 0 -- -- 69
2018-09-14 02:00:00 17.9 8 Norte 12 Nordeste 0 -- -- 64
2018-09-14 01:00:00 18.4 7 Oeste 26 Nordeste 0 -- -- 53
2018-09-14 00:00:00 18 8 Noroeste 13 Noroeste 0 -- -- 54
2018-09-13 23:00:00 19.7 9 Oeste 13 Oeste 0 -- -- 49
2018-09-13 22:00:00 22.1 8 Oeste 11 Oeste 0 -- -- 46
2018-09-13 21:00:00 24.3 11 Sudoeste 13 Sudoeste 0 -- -- 41
2018-09-13 20:00:00 29.2 8 Oeste 19 Oeste 0 -- -- 29
2018-09-13 19:00:00 30.5 15 Oeste 24 Oeste 0 -- -- 28
2018-09-13 18:00:00 31.1 12 Oeste 21 Oeste 0 -- -- 30
2018-09-13 17:00:00 30.3 6 Oeste 26 Sudoeste 0 -- -- 31
2018-09-13 16:00:00 29.1 8 Este 21 Este 0 -- -- 39
2018-09-13 15:00:00 27.8 10 Norte 18 Nordeste 0 -- -- 42
2018-09-13 14:00:00 25.5 6 Nordeste 18 Este 0 -- -- 49
2018-09-13 13:00:00 23.8 8 Este 16 Nordeste 0 -- -- 56
2018-09-13 12:00:00 21.5 9 Nordeste 17 Nordeste 0 -- -- 63
2018-09-13 11:00:00 19.8 10 Nordeste 16 Nordeste 0 -- -- 69
2018-09-13 10:00:00 18.3 12 Nordeste 18 Nordeste 0 -- -- 73
2018-09-13 09:00:00 14.4 4 Noroeste 9 Oeste 0 -- -- 87
2018-09-13 08:00:00 12.5 8 Noroeste 10 Oeste 0 -- -- 88
2018-09-13 07:00:00 13.8 3 Noroeste 5 Sudoeste 0 -- -- 86
2018-09-13 06:00:00 14.9 0 Calma 4 Noroeste 0 -- -- 80
2018-09-13 05:00:00 16.7 3 Nordeste 7 Nordeste 0 -- -- 76
2018-09-13 04:00:00 17.8 6 Nordeste 11 Nordeste 0 -- -- 73
2018-09-13 03:00:00 19.3 7 Norte 14 Noroeste 0 -- -- 66
2018-09-13 02:00:00 20.6 7 Norte 15 Nordeste 0 -- -- 58
2018-09-13 01:00:00 19 8 Oeste 14 Noroeste 0 -- -- 61
2018-09-13 00:00:00 19.4 8 Noroeste 14 Noroeste 0 -- -- 59
2018-09-12 23:00:00 20.6 13 Noroeste 15 Noroeste 0 -- -- 52
2018-09-12 22:00:00 22.9 9 Noroeste 15 Oeste 0 -- -- 43
2018-09-12 21:00:00 24.7 14 Oeste 17 Oeste 0 -- -- 36
2018-09-12 20:00:00 29 14 Oeste 23 Oeste 0 -- -- 31
2018-09-12 19:00:00 30.3 16 Oeste 28 Oeste 0 -- -- 29
2018-09-12 18:00:00 31 13 Oeste 34 Oeste 0 -- -- 28
2018-09-12 17:00:00 30.8 14 Oeste 30 Oeste 0 -- -- 28
2018-09-12 16:00:00 29.6 15 Oeste 29 Oeste 0 -- -- 32
2018-09-12 15:00:00 29.3 15 Oeste 26 Oeste 0 -- -- 33
2018-09-12 14:00:00 28 5 Sur 14 Este 0 -- -- 37
2018-09-12 13:00:00 26 6 Este 12 Este 0 -- -- 44
2018-09-12 12:00:00 23.4 4 Norte 12 Nordeste 0 -- -- 49
2018-09-12 11:00:00 21.2 7 Noroeste 17 Norte 0 -- -- 56
2018-09-12 10:00:00 19.1 8 Norte 14 Noroeste 0 -- -- 61
2018-09-12 09:00:00 15.8 9 Noroeste 13 Noroeste 0 -- -- 74
2018-09-12 08:00:00 13.1 8 Noroeste 10 Oeste 0 -- -- 84
2018-09-12 07:00:00 15.2 6 Noroeste 14 Noroeste 0 -- -- 75
2018-09-12 06:00:00 16 8 Noroeste 14 Noroeste 0 -- -- 73
2018-09-12 05:00:00 14.6 10 Oeste 13 Noroeste 0 -- -- 76
2018-09-12 04:00:00 15.8 9 Oeste 13 Noroeste -- -- -- 72
2018-09-12 03:00:00 15.4 13 Noroeste 14 Oeste 0 -- -- 73
2018-09-12 02:00:00 15.2 9 Noroeste 12 Oeste 0 -- -- 75
2018-09-12 01:00:00 15.9 10 Noroeste 12 Noroeste 0 -- -- 72
2018-09-12 00:00:00 17.3 7 Noroeste 12 Noroeste 0 -- -- 64
2018-09-11 23:00:00 20 5 Sudeste 19 Este 0 -- -- 53
2018-09-11 22:00:00 19.7 4 Noroeste 8 Noroeste 0 -- -- 54
2018-09-11 21:00:00 23.5 3 Noroeste 12 Nordeste 0 -- -- 44
2018-09-11 20:00:00 27.9 8 Nordeste 13 Este 0 -- -- 34
2018-09-11 19:00:00 29.2 4 Nordeste 17 Este 0 -- -- 32
2018-09-11 18:00:00 29.5 6 Sudoeste 18 Sudoeste 0 -- -- 32
2018-09-11 17:00:00 29.3 7 Nordeste 19 Nordeste 0 -- -- 34
2018-09-11 16:00:00 29 8 Este 21 Nordeste 0 -- -- 34
2018-09-11 15:00:00 27.9 7 Este 18 Este 0 -- -- 38
2018-09-11 14:00:00 26.5 6 Nordeste 17 Este 0 -- -- 44
2018-09-11 13:00:00 24.9 8 Nordeste 18 Nordeste 0 -- -- 49
2018-09-11 12:00:00 22.8 8 Nordeste 17 Norte 0 -- -- 55
2018-09-11 11:00:00 20.3 7 Norte 17 Nordeste 0 -- -- 62
2018-09-11 10:00:00 18.5 9 Nordeste 15 Nordeste 0 -- -- 69
2018-09-11 09:00:00 15.1 7 Noroeste 14 Oeste 0 -- -- 84
2018-09-11 08:00:00 12.1 9 Noroeste 12 Noroeste 0 -- -- 89
2018-09-11 07:00:00 12.9 10 Noroeste 13 Noroeste 0 -- -- 87
2018-09-11 06:00:00 13.2 10 Noroeste 14 Noroeste 0 -- -- 85
2018-09-11 05:00:00 13.6 10 Oeste 13 Noroeste 0 -- -- 84
2018-09-11 04:00:00 14.5 9 Noroeste 14 Oeste 0 -- -- 80
2018-09-11 03:00:00 14.2 10 Noroeste 12 Noroeste 0 -- -- 81
2018-09-11 02:00:00 15.5 6 Noroeste 12 Oeste 0 -- -- 74
2018-09-11 01:00:00 15.9 11 Oeste 12 Oeste 0 -- -- 72
2018-09-11 00:00:00 17.3 7 Noroeste 12 Oeste 0 -- -- 66
2018-09-10 23:00:00 17.4 10 Oeste 13 Oeste 0 -- -- 65
2018-09-10 22:00:00 18.7 10 Oeste 12 Oeste 0 -- -- 61
2018-09-10 21:00:00 22.6 3 Noroeste 15 Nordeste 0 -- -- 47
2018-09-10 20:00:00 26 9 Nordeste 19 Nordeste 0 -- -- 40
2018-09-10 19:00:00 27.1 8 Nordeste 21 Nordeste 0 -- -- 37
2018-09-10 18:00:00 27.5 10 Nordeste 23 Este 0 -- -- 37
2018-09-10 17:00:00 27.1 18 Este 28 Este 0 -- -- 39
2018-09-10 16:00:00 26.5 13 Este 26 Nordeste 0 -- -- 42
2018-09-10 15:00:00 25.4 10 Nordeste 27 Nordeste 0 -- -- 46
2018-09-10 14:00:00 24.1 11 Nordeste 26 Este 0 -- -- 49
2018-09-10 13:00:00 22.5 14 Nordeste 25 Nordeste 0 -- -- 55
2018-09-10 12:00:00 20.7 14 Este 25 Este 0 -- -- 61
2018-09-10 11:00:00 19 15 Nordeste 22 Nordeste 0 -- -- 66
2018-09-10 10:00:00 17.3 9 Nordeste 13 Nordeste 0 -- -- 73
2018-09-10 09:00:00 14.4 5 Oeste 12 Noroeste 0 -- -- 90
2018-09-10 08:00:00 12 7 Noroeste 10 Noroeste 0 -- -- 92
2018-09-10 07:00:00 12.5 6 Oeste 12 Noroeste 0 -- -- 91
2018-09-10 06:00:00 13.8 9 Noroeste 16 Norte 0 -- -- 87
2018-09-10 05:00:00 14.6 6 Norte 13 Norte 0 -- -- 86
2018-09-10 04:00:00 14.4 7 Norte 13 Norte 0 -- -- 89
2018-09-10 03:00:00 13.8 6 Noroeste 8 Noroeste 0 -- -- 86
2018-09-10 02:00:00 15.1 6 Norte 12 Norte 0 -- -- 81
2018-09-10 01:00:00 15.2 6 Norte 13 Noroeste 0 -- -- 80
2018-09-10 00:00:00 16.1 11 Noroeste 14 Noroeste 0 -- -- 77
2018-09-09 23:00:00 16 9 Oeste 12 Noroeste 0 -- -- 80
2018-09-09 22:00:00 18.2 5 Noroeste 15 Noroeste 0 -- -- 70
2018-09-09 21:00:00 21.2 5 Noroeste 15 Norte 0 -- -- 60
2018-09-09 20:00:00 22.1 14 Norte 26 Norte 0 -- -- 53
2018-09-09 19:00:00 24.5 12 Nordeste 21 Este 0 -- -- 43
2018-09-09 18:00:00 27.8 7 Nordeste 13 Nordeste 0 -- -- 33
2018-09-09 17:00:00 25.5 3 Sudeste 13 Este 0 -- -- 37
2018-09-09 16:00:00 26.8 5 Nordeste 22 Nordeste 0 -- -- 35
2018-09-09 15:00:00 26 9 Norte 15 Norte 0 -- -- 38
2018-09-09 14:00:00 24.4 6 Nordeste 15 Norte 0 -- -- 42
2018-09-09 13:00:00 23 4 Sudeste 13 Este 0 -- -- 47
2018-09-09 12:00:00 21.2 5 Nordeste 12 Este 0.2 -- -- 56
2018-09-09 11:00:00 18.6 4 Este 9 Nordeste 0 -- -- 67
2018-09-09 10:00:00 15.6 0 Calma 6 Este 0 -- -- 78
2018-09-09 09:00:00 12 3 Sur 6 Este 0 -- -- 91
2018-09-09 08:00:00 11.6 4 Sur 9 Noroeste 0 -- -- 90
2018-09-09 07:00:00 11.8 8 Noroeste 14 Noroeste 0 -- -- 91
2018-09-09 06:00:00 12 10 Oeste 13 Oeste 0 -- -- 91
2018-09-09 05:00:00 12.6 10 Oeste 12 Noroeste 0 -- -- 90
2018-09-09 04:00:00 13.6 6 Oeste 9 Norte 0 -- -- 86
2018-09-09 03:00:00 15.3 4 Noroeste 8 Sur 0 -- -- 82
2018-09-09 02:00:00 16 4 Sur 16 Oeste 0 -- -- 77
2018-09-09 01:00:00 16.2 8 Oeste 25 Noroeste 0.2 -- -- 77
2018-09-09 00:00:00 16.1 13 Noroeste 23 Noroeste 0 -- -- 77
2018-09-08 23:00:00 17 17 Oeste 34 Oeste 0 -- -- 78
2018-09-08 22:00:00 18.9 32 Oeste 51 Oeste 0 -- -- 64
2018-09-08 21:00:00 23.3 21 Sudeste 31 Sudeste 0 -- -- 47
2018-09-08 20:00:00 24.4 10 Sudeste 25 Sudeste 0 -- -- 39
2018-09-08 19:00:00 26.4 16 Sur 31 Sudeste 0 -- -- 34
2018-09-08 18:00:00 26.8 15 Sudeste 30 Sudeste 0 -- -- 35
2018-09-08 17:00:00 27.6 14 Sudeste 27 Sudeste 0 -- -- 36
2018-09-08 16:00:00 26.6 10 Sur 19 Sur 0 -- -- 38
2018-09-08 15:00:00 26 8 Este 21 Sudeste 0 -- -- 41
2018-09-08 14:00:00 24.7 7 Sudeste 18 Sudeste 0 -- -- 45
2018-09-08 13:00:00 22.9 8 Este 17 Este 0 -- -- 52
2018-09-08 12:00:00 21.1 9 Nordeste 20 Nordeste 0 -- -- 57
2018-09-08 11:00:00 20.1 4 Este 11 Nordeste 0 -- -- 59
2018-09-08 10:00:00 17.3 8 Noroeste 18 Noroeste 0 -- -- 68
2018-09-08 09:00:00 14.9 10 Noroeste 14 Noroeste 0 -- -- 76
2018-09-08 08:00:00 13 10 Oeste 15 Noroeste 0 -- -- 85
2018-09-08 07:00:00 12.7 9 Oeste 13 Noroeste 0 -- -- 85
2018-09-08 06:00:00 13.4 6 Noroeste 15 Noroeste 0 -- -- 81
2018-09-08 05:00:00 15.1 9 Noroeste 15 Norte 0 -- -- 77
2018-09-08 04:00:00 15.4 7 Norte 12 Norte 0 -- -- 77
2018-09-08 03:00:00 16.1 9 Norte 15 Norte 0 -- -- 73
2018-09-08 02:00:00 16.7 5 Norte 26 Nordeste 0 -- -- 70
2018-09-08 01:00:00 17.8 12 Este 23 Este 0 -- -- 66
2018-09-08 00:00:00 17.7 9 Nordeste 18 Nordeste 0 -- -- 61
2018-09-07 23:00:00 17.6 0 Calma 9 Oeste 0 -- -- 59
2018-09-07 22:00:00 18.4 8 Oeste 10 Norte 0 -- -- 58
2018-09-07 21:00:00 21.5 8 Norte 15 Nordeste 0 -- -- 46
2018-09-07 20:00:00 23.8 13 Nordeste 21 Nordeste 0 -- -- 40
2018-09-07 19:00:00 25.3 10 Este 24 Este 0 -- -- 36
2018-09-07 18:00:00 26 11 Nordeste 25 Sudeste 0 -- -- 35
2018-09-07 17:00:00 25.6 12 Este 29 Este 0 -- -- 35
2018-09-07 16:00:00 25.3 12 Este 29 Este 0 -- -- 37
2018-09-07 15:00:00 24.3 15 Este 33 Este 0 -- -- 39
2018-09-07 14:00:00 23 19 Este 31 Este 0 -- -- 43
2018-09-07 13:00:00 21.9 21 Este 34 Este 0 -- -- 47
2018-09-07 12:00:00 20.1 19 Nordeste 29 Este 0 -- -- 55
2018-09-07 11:00:00 17.8 16 Nordeste 28 Nordeste 0 -- -- 67
2018-09-07 10:00:00 15.7 17 Nordeste 27 Nordeste 0 -- -- 75
2018-09-07 09:00:00 13.6 7 Norte 10 Norte 0 -- -- 85
2018-09-07 08:00:00 11.4 4 Norte 8 Norte 0 -- -- 90
2018-09-07 07:00:00 11.9 4 Norte 8 Norte 0 -- -- 88
2018-09-07 06:00:00 12.2 4 Norte 11 Norte 0 -- -- 87
2018-09-07 05:00:00 12.5 3 Norte 7 Norte 0 -- -- 87
2018-09-07 04:00:00 13.4 4 Nordeste 12 Nordeste 0 -- -- 82
2018-09-07 03:00:00 14 8 Nordeste 15 Nordeste 0 -- -- 79
2018-09-07 02:00:00 14.5 6 Nordeste 17 Nordeste 0 -- -- 78
2018-09-07 01:00:00 15.6 12 Nordeste 26 Nordeste 0 -- -- 73
2018-09-07 00:00:00 16.9 19 Nordeste 28 Este 0 -- -- 67
2018-09-06 23:00:00 18.2 19 Este 28 Nordeste 0 -- -- 65
2018-09-06 22:00:00 19.3 13 Nordeste 20 Nordeste 0 -- -- 59
2018-09-06 21:00:00 20.7 8 Nordeste 26 Nordeste 0 -- -- 55
2018-09-06 20:00:00 22.8 18 Nordeste 27 Este 0 -- -- 48
2018-09-06 19:00:00 23.3 16 Norte 27 Norte 0 -- -- 45
2018-09-06 18:00:00 25.3 9 Nordeste 22 Este 0 -- -- 38
2018-09-06 17:00:00 25 10 Nordeste 25 Nordeste 0 -- -- 39
2018-09-06 16:00:00 24.4 8 Nordeste 21 Nordeste 0 -- -- 42
2018-09-06 15:00:00 23.6 6 Nordeste 21 Este 0 -- -- 45
2018-09-06 14:00:00 22.6 13 Nordeste 24 Este 0 -- -- 48
2018-09-06 13:00:00 21.4 14 Este 27 Este 0 -- -- 53
2018-09-06 12:00:00 19.9 22 Este 32 Este 0 -- -- 58
2018-09-06 11:00:00 18.8 15 Nordeste 23 Nordeste 0 -- -- 62
2018-09-06 10:00:00 15.7 12 Nordeste 19 Nordeste 0 -- -- 77
2018-09-06 09:00:00 13.1 6 Oeste 9 Noroeste 0 -- -- 91
2018-09-06 08:00:00 12.3 6 Noroeste 13 Noroeste 0 -- -- 90
2018-09-06 07:00:00 13.4 10 Norte 15 Norte 0 -- -- 88
2018-09-06 06:00:00 14.2 6 Norte 12 Norte 0 -- -- 86
2018-09-06 05:00:00 14.2 8 Norte 11 Noroeste 0 -- -- 87
2018-09-06 04:00:00 14.9 4 Norte 14 Norte 0 -- -- 85
2018-09-06 03:00:00 15.6 10 Norte 15 Norte 0 -- -- 83
2018-09-06 02:00:00 15.7 9 Nordeste 13 Norte 0 -- -- 84
2018-09-06 01:00:00 16.3 10 Nordeste 21 Nordeste 0 -- -- 81
2018-09-06 00:00:00 16.7 10 Noroeste 17 Noroeste 0 -- -- 80
2018-09-05 23:00:00 16.8 4 Oeste 9 Noroeste 0 -- -- 88
2018-09-05 22:00:00 18 4 Noroeste 6 Noroeste 0 -- -- 85
2018-09-05 21:00:00 18.2 2 Este 13 Este 0 -- -- 79
2018-09-05 20:00:00 19.1 5 Este 23 Sudoeste 0 -- -- 72
2018-09-05 19:00:00 19.3 25 Norte 42 Norte 0 -- -- 67
2018-09-05 18:00:00 23.7 7 Nordeste 22 Nordeste 0 -- -- 46
2018-09-05 17:00:00 23.9 3 Norte 22 Norte 0 -- -- 47
2018-09-05 16:00:00 23.2 4 Norte 16 Norte 0 -- -- 51
2018-09-05 15:00:00 22 9 Norte 17 Noroeste 0 -- -- 55
2018-09-05 14:00:00 21.5 5 Nordeste 24 Este 0 -- -- 56
2018-09-05 13:00:00 20 14 Este 24 Este 0 -- -- 62
2018-09-05 12:00:00 18 18 Este 27 Este 0 -- -- 68
2018-09-05 11:00:00 16.1 11 Nordeste 21 Nordeste 0.2 -- -- 78
2018-09-05 10:00:00 16 12 Nordeste 19 Nordeste 0 -- -- 71
2018-09-05 09:00:00 14.9 12 Nordeste 19 Nordeste 0 -- -- 76
2018-09-05 08:00:00 14.9 7 Nordeste 14 Norte 0 -- -- 75
2018-09-05 07:00:00 14.7 5 Norte 10 Nordeste 0 -- -- 76
2018-09-05 06:00:00 14.8 6 Noroeste 13 Norte 0 -- -- 77
2018-09-05 05:00:00 15 8 Norte 13 Norte 0 -- -- 79
2018-09-05 04:00:00 15.3 5 Norte 15 Norte 0 -- -- 81
2018-09-05 03:00:00 15.9 7 Norte 18 Nordeste 0 -- -- 80
2018-09-05 02:00:00 16.5 8 Norte 14 Nordeste 0 -- -- 80
2018-09-05 01:00:00 17.3 10 Nordeste 16 Nordeste 0 -- -- 77
2018-09-05 00:00:00 19 5 Este 36 Este 0 -- -- 71
2018-09-04 23:00:00 20 14 Este 34 Nordeste 0 -- -- 69
2018-09-04 22:00:00 21.2 2 Sudeste 4 Sur 0 -- -- 69
2018-09-04 21:00:00 23.2 3 Sudoeste 9 Este 0 -- -- 56
2018-09-04 20:00:00 25.6 6 Este 10 Este 0 -- -- 44
2018-09-04 19:00:00 26.7 4 Este 12 Noroeste 0 -- -- 40
2018-09-04 18:00:00 26.6 6 Este 19 Nordeste 0 -- -- 41
2018-09-04 17:00:00 26.2 6 Este 18 Nordeste 0 -- -- 42
2018-09-04 16:00:00 25.3 6 Nordeste 19 Nordeste 0 -- -- 43
2018-09-04 15:00:00 24.2 8 Nordeste 22 Nordeste 0 -- -- 45
2018-09-04 14:00:00 22.3 12 Nordeste 22 Nordeste 0 -- -- 49
2018-09-04 13:00:00 20.8 11 Nordeste 19 Nordeste 0 -- -- 52
2018-09-04 12:00:00 18.4 12 Nordeste 21 Nordeste 0 -- -- 57
2018-09-04 11:00:00 17.3 15 Nordeste 22 Nordeste 0 -- -- 57
2018-09-04 10:00:00 15.8 11 Nordeste 18 Nordeste 0 -- -- 59
2018-09-04 09:00:00 13.8 5 Norte 13 Nordeste 0 -- -- 75
2018-09-04 08:00:00 12.6 5 Nordeste 14 Nordeste 0 -- -- 76
2018-09-04 07:00:00 12.3 0 Calma 6 Sudeste 0 -- -- 86
2018-09-04 06:00:00 13.3 2 Sudeste 5 Sudeste 0 -- -- 90
2018-09-04 05:00:00 14.1 2 Sur 7 Noroeste 0 -- -- 89
2018-09-04 04:00:00 14.4 3 Noroeste 8 Nordeste 0 -- -- 83
2018-09-04 03:00:00 15.3 3 Norte 8 Nordeste 0 -- -- 82
2018-09-04 02:00:00 16.3 6 Nordeste 14 Norte 0 -- -- 82
2018-09-04 01:00:00 17.2 0 Calma 12 Norte 0 -- -- 79
2018-09-04 00:00:00 17.4 7 Oeste 19 Nordeste 0 -- -- 81
2018-09-03 23:00:00 18.6 3 Nordeste 22 Norte 0 -- -- 75
2018-09-03 22:00:00 17.6 13 Nordeste 51 Oeste 4 -- -- 81
2018-09-03 21:00:00 21.4 36 Oeste 60 Oeste 0 -- -- 55
2018-09-03 20:00:00 27.4 8 Norte 20 Nordeste 0 -- -- 34
2018-09-03 19:00:00 29.4 12 Nordeste 23 Nordeste 0 -- -- 32
2018-09-03 18:00:00 29.5 15 Este 24 Nordeste 0 -- -- 34
2018-09-03 17:00:00 29.1 10 Nordeste 25 Nordeste 0 -- -- 37
2018-09-03 16:00:00 27.8 11 Nordeste 23 Nordeste 0 -- -- 41
2018-09-03 15:00:00 24.9 14 Nordeste 23 Este 0 -- -- 47
2018-09-03 14:00:00 24.2 14 Nordeste 24 Este 0 -- -- 57
2018-09-03 13:00:00 22.4 7 Nordeste 12 Nordeste 0 -- -- 62
2018-09-03 12:00:00 19 5 Nordeste 10 Este 0 -- -- 80
2018-09-03 11:00:00 18 4 Norte 20 Este 0.2 -- -- 83
2018-09-03 10:00:00 19.2 5 Noroeste 20 Noroeste 0 -- -- 76
2018-09-03 09:00:00 17.2 11 Noroeste 35 Noroeste 1.2 -- -- 83
2018-09-03 08:00:00 19.2 12 Noroeste 21 Noroeste 0 -- -- 61
2018-09-03 07:00:00 18.9 12 Noroeste 21 Noroeste 0 -- -- 61
2018-09-03 06:00:00 19.9 11 Noroeste 17 Noroeste 0 -- -- 56
2018-09-03 05:00:00 20.5 11 Noroeste 15 Noroeste 0 -- -- 54
2018-09-03 04:00:00 22.4 11 Nordeste 29 Noroeste 0 -- -- 51
2018-09-03 03:00:00 22.6 7 Nordeste 31 Este 0 -- -- 51
2018-09-03 02:00:00 24.6 11 Este 28 Sudeste 0 -- -- 43
2018-09-03 01:00:00 20.7 5 Oeste 12 Noroeste 0 -- -- 50
2018-09-03 00:00:00 23.2 3 Noroeste 18 Oeste 0 -- -- 45
2018-09-02 23:00:00 25 15 Norte 32 Norte 0 -- -- 44
2018-09-02 22:00:00 29 18 Sur 39 Sudeste 0 -- -- 30
2018-09-02 21:00:00 28.4 2 Noroeste 11 Nordeste 0 -- -- 34
2018-09-02 20:00:00 32.3 6 Este 11 Oeste 0 -- -- 26
2018-09-02 19:00:00 33.7 4 Sudoeste 23 Sudeste 0 -- -- 24
2018-09-02 18:00:00 33.9 11 Este 21 Oeste 0 -- -- 24
2018-09-02 17:00:00 33.9 9 Este 31 Norte 0 -- -- 24
2018-09-02 16:00:00 33.3 10 Oeste 22 Sudoeste 0 -- -- 27
2018-09-02 15:00:00 32.3 8 Sudeste 21 Sudeste 0 -- -- 28
2018-09-02 14:00:00 29.8 8 Este 19 Este 0 -- -- 35
2018-09-02 13:00:00 27.8 6 Nordeste 17 Nordeste 0 -- -- 40
2018-09-02 12:00:00 25.9 11 Nordeste 21 Nordeste 0 -- -- 43
2018-09-02 11:00:00 23.5 15 Nordeste 21 Nordeste 0 -- -- 48
2018-09-02 10:00:00 21.1 13 Nordeste 21 Nordeste 0 -- -- 57
2018-09-02 09:00:00 17.4 8 Noroeste 13 Noroeste 0 -- -- 73
2018-09-02 08:00:00 15.2 10 Oeste 15 Oeste 0 -- -- 80
2018-09-02 07:00:00 15.2 10 Noroeste 13 Oeste 0 -- -- 78
2018-09-02 06:00:00 15.8 10 Noroeste 17 Oeste 0 -- -- 75
2018-09-02 05:00:00 16.6 13 Noroeste 17 Oeste 0 -- -- 71
2018-09-02 04:00:00 16.9 12 Norte 16 Oeste 0 -- -- 70
2018-09-02 03:00:00 16.7 7 Noroeste 11 Noroeste 0 -- -- 64
2018-09-02 02:00:00 18.2 6 Noroeste 9 Noroeste 0 -- -- 58
2018-09-02 01:00:00 18.2 4 Norte 12 Oeste 0 -- -- 58
2018-09-02 00:00:00 19.1 5 Oeste 11 Oeste 0 -- -- 55
2018-09-01 23:00:00 19.8 8 Oeste 10 Oeste 0 -- -- 52
2018-09-01 22:00:00 23.3 2 Oeste 8 Nordeste 0 -- -- 43
2018-09-01 21:00:00 26.8 7 Nordeste 11 Nordeste 0 -- -- 39
2018-09-01 20:00:00 30.7 6 Este 15 Sudeste 0 -- -- 29
2018-09-01 19:00:00 31.8 5 Este -- -- -- -- -- 28
2018-09-01 18:00:00 31.7 5 Este 17 Este 0 -- -- 27
2018-09-01 17:00:00 31.2 10 Nordeste 18 Sudeste 0 -- -- 29
2018-09-01 16:00:00 30.5 10 Este 24 Este 0 -- -- 30
2018-09-01 15:00:00 29.8 12 Este 24 Este 0 -- -- 34
2018-09-01 14:00:00 28.2 13 Este 25 Este 0 -- -- 38
2018-09-01 13:00:00 25.9 12 Nordeste 22 Este 0 -- -- 46
2018-09-01 12:00:00 23.4 13 Nordeste 22 Nordeste 0 -- -- 52
2018-09-01 11:00:00 21.1 14 Nordeste 22 Nordeste 0 -- -- 59
2018-09-01 10:00:00 19.2 14 Nordeste 23 Nordeste 0 -- -- 65
2018-09-01 09:00:00 17.4 9 Norte 14 Norte 0 -- -- 72
2018-09-01 08:00:00 13.7 5 Noroeste 9 Norte 0 -- -- 84
2018-09-01 07:00:00 14.4 8 Norte 11 Noroeste 0 -- -- 82
2018-09-01 06:00:00 15.4 9 Noroeste 15 Norte 0 -- -- 80
2018-09-01 05:00:00 15.6 8 Norte 12 Norte 0 -- -- 81
2018-09-01 04:00:00 16.5 9 Norte 13 Norte 0 -- -- 77
2018-09-01 03:00:00 17.7 9 Norte 13 Norte 0 -- -- 72
2018-09-01 02:00:00 19 7 Norte 14 Nordeste 0 -- -- 66
2018-09-01 01:00:00 20.2 7 Nordeste 13 Este 0 -- -- 60
2018-09-01 00:00:00 20.9 4 Oeste 18 Este 0 -- -- 53
2018-08-31 23:00:00 19.6 2 Este 5 Sudeste 0 -- -- 47
2018-08-31 22:00:00 20.7 2 Sudoeste 4 Oeste 0 -- -- 42
2018-08-31 21:00:00 26 0 Calma 11 Nordeste 0 -- -- 33
2018-08-31 20:00:00 28.9 8 Nordeste 18 Nordeste 0 -- -- 27
2018-08-31 19:00:00 30.1 12 Este 19 Nordeste 0 -- -- 26
2018-08-31 18:00:00 30.2 7 Nordeste 17 Nordeste 0 -- -- 26
2018-08-31 17:00:00 29.9 10 Nordeste 17 Nordeste 0 -- -- 28
2018-08-31 16:00:00 29.2 7 Norte 19 Nordeste 0 -- -- 30
2018-08-31 15:00:00 28.2 9 Nordeste 22 Nordeste 0 -- -- 30
2018-08-31 14:00:00 26.3 9 Este 21 Nordeste 0 -- -- 34
2018-08-31 13:00:00 24.5 10 Nordeste 27 Este 0 -- -- 36
2018-08-31 12:00:00 22 9 Nordeste 21 Nordeste 0 -- -- 47
2018-08-31 11:00:00 19.7 14 Nordeste 21 Nordeste 0 -- -- 54
2018-08-31 10:00:00 17.9 13 Nordeste 21 Norte 0 -- -- 60
2018-08-31 09:00:00 16.2 10 Norte 18 Norte 0 -- -- 69
2018-08-31 08:00:00 15 8 Norte 19 Nordeste 0 -- -- 74
2018-08-31 07:00:00 14.4 6 Norte 11 Nordeste 0 -- -- 79
2018-08-31 06:00:00 14.4 6 Norte 10 Norte 0 -- -- 83
2018-08-31 05:00:00 14 6 Noroeste 10 Nordeste 0 -- -- 85
2018-08-31 04:00:00 15.6 5 Nordeste 10 Nordeste 0 -- -- 81
2018-08-31 03:00:00 16.7 6 Nordeste 12 Nordeste 0 -- -- 77
2018-08-31 02:00:00 17.4 6 Nordeste 16 Este 0 -- -- 74
2018-08-31 01:00:00 18.6 8 Nordeste 22 Este 0 -- -- 69
2018-08-31 00:00:00 20.6 14 Nordeste 22 Este 0 -- -- 59
2018-08-30 23:00:00 21.4 11 Noroeste 19 Noroeste 0 -- -- 48
2018-08-30 22:00:00 23.3 7 Noroeste 10 Oeste 0 -- -- 44
2018-08-30 21:00:00 25.9 3 Sur 10 Oeste 0 -- -- 38
2018-08-30 20:00:00 29.8 8 Sudoeste 19 Sudoeste 0 -- -- 31
2018-08-30 19:00:00 30.5 8 Oeste 23 Oeste 0 -- -- 29
2018-08-30 18:00:00 30.3 11 Sur 23 Sur 0 -- -- 31
2018-08-30 17:00:00 30.2 7 Este 20 Este 0 -- -- 33
2018-08-30 16:00:00 29 4 Sur 18 Sudeste 0 -- -- 37
2018-08-30 15:00:00 27 6 Nordeste 18 Nordeste 0 -- -- 43
2018-08-30 14:00:00 25.5 6 Este 19 Este 0 -- -- 48
2018-08-30 13:00:00 23.5 9 Nordeste 21 Nordeste 0 -- -- 52
2018-08-30 12:00:00 21.3 12 Nordeste 22 Nordeste 0 -- -- 58
2018-08-30 11:00:00 19.4 13 Nordeste 23 Nordeste 0 -- -- 64
2018-08-30 10:00:00 17.5 14 Nordeste 23 Nordeste 0 -- -- 69
2018-08-30 09:00:00 15.3 9 Norte 13 Noroeste 0 -- -- 80
2018-08-30 08:00:00 13.6 10 Noroeste 17 Noroeste 0 -- -- 86
2018-08-30 07:00:00 13.9 12 Noroeste 18 Noroeste 0 -- -- 86
2018-08-30 06:00:00 14.2 8 Noroeste 14 Norte 0 -- -- 86
2018-08-30 05:00:00 14.9 8 Norte 14 Norte 0 -- -- 84
2018-08-30 04:00:00 15.1 8 Norte 10 Norte 0 -- -- 83
2018-08-30 03:00:00 16 7 Norte 18 Nordeste 0 -- -- 80
2018-08-30 02:00:00 16.9 12 Nordeste 21 Este 0 -- -- 77
2018-08-30 01:00:00 18 12 Nordeste 35 Nordeste 0 -- -- 73
2018-08-30 00:00:00 19.7 16 Este 29 Nordeste 0 -- -- 66
2018-08-29 23:00:00 21.3 6 Este 18 Nordeste 0 -- -- 55
2018-08-29 22:00:00 21.5 2 Oeste 8 Nordeste 0 -- -- 45
2018-08-29 21:00:00 25.3 9 Nordeste 12 Nordeste 0 -- -- 39
2018-08-29 20:00:00 28.4 5 Este 12 Nordeste 0 -- -- 32
2018-08-29 19:00:00 28.7 3 Sudeste 14 Este 0 -- -- 32
2018-08-29 18:00:00 29.4 6 Norte 15 Norte 0 -- -- 32
2018-08-29 17:00:00 29.3 5 Noroeste 21 Este 0 -- -- 31
2018-08-29 16:00:00 28.6 8 Norte 19 Nordeste 0 -- -- 32
2018-08-29 15:00:00 27.1 5 Noroeste 14 Este 0 -- -- 38
2018-08-29 14:00:00 26.1 8 Nordeste 22 Nordeste 0 -- -- 43
2018-08-29 13:00:00 24.8 8 Nordeste 27 Este 0 -- -- 47
2018-08-29 12:00:00 23.3 10 Nordeste 20 Nordeste 0 -- -- 52
2018-08-29 11:00:00 21.5 10 Nordeste 18 Norte 0 -- -- 57
2018-08-29 10:00:00 19.1 5 Norte 12 Noroeste 0 -- -- 65
2018-08-29 09:00:00 16.3 7 Noroeste 13 Noroeste 0 -- -- 78
2018-08-29 08:00:00 13.8 12 Noroeste 15 Noroeste 0 -- -- 86
2018-08-29 07:00:00 13.1 11 Noroeste 13 Oeste 0 -- -- 87
2018-08-29 06:00:00 12.7 6 Noroeste 10 Oeste 0 -- -- 82
2018-08-29 05:00:00 13.4 3 Oeste 5 Oeste 0 -- -- 78
2018-08-29 04:00:00 14 0 Calma 3 Sudoeste 0 -- -- 77
2018-08-29 03:00:00 15.2 3 Oeste 5 Oeste 0 -- -- 74
2018-08-29 02:00:00 16.4 3 Oeste 5 Oeste 0 -- -- 68
2018-08-29 01:00:00 18.3 3 Este 9 Este 0 -- -- 65
2018-08-29 00:00:00 20 6 Oeste 11 Noroeste 0 -- -- 59
2018-08-28 23:00:00 21.7 9 Noroeste 14 Noroeste 0 -- -- 52
2018-08-28 22:00:00 22.8 9 Oeste 19 Oeste 0 -- -- 49
2018-08-28 21:00:00 25.7 17 Sudoeste 30 Noroeste 0 -- -- 47
2018-08-28 20:00:00 28.9 21 Oeste 33 Noroeste 0 -- -- 32
2018-08-28 19:00:00 30.2 20 Oeste 41 Oeste 0 -- -- 30
2018-08-28 18:00:00 30.8 23 Oeste 41 Sudoeste 0 -- -- 28
2018-08-28 17:00:00 30.9 19 Oeste 40 Sudoeste 0 -- -- 28
2018-08-28 16:00:00 30.2 20 Oeste 43 Oeste 0 -- -- 30
2018-08-28 15:00:00 29.5 23 Sudoeste 37 Oeste 0 -- -- 31
2018-08-28 14:00:00 28.7 21 Sudoeste 42 Sudoeste 0 -- -- 36
2018-08-28 13:00:00 27.8 17 Sur 37 Sudoeste 0 -- -- 40
2018-08-28 12:00:00 26.4 11 Sur 23 Sur 0 -- -- 43
2018-08-28 11:00:00 24.9 8 Sudoeste 20 Sudoeste 0 -- -- 45
2018-08-28 10:00:00 23.7 5 Este 8 Este 0 -- -- 46
2018-08-28 09:00:00 20.2 5 Sudeste 8 Sudeste 0 -- -- 53
2018-08-28 08:00:00 17.2 4 Oeste 14 Oeste 0 -- -- 56
2018-08-28 07:00:00 17.9 12 Oeste 16 Oeste 0 -- -- 54
2018-08-28 06:00:00 19.3 5 Oeste 10 Oeste 0 -- -- 47
2018-08-28 05:00:00 17.7 8 Oeste 10 Oeste 0 -- -- 50
2018-08-28 04:00:00 16.9 0 Calma 5 Sudeste 0 -- -- 51
2018-08-28 03:00:00 17.5 3 Noroeste 6 Sudeste 0 -- -- 49
2018-08-28 02:00:00 18.9 4 Noroeste 12 Oeste 0 -- -- 45
2018-08-28 01:00:00 20 12 Oeste 15 Noroeste 0 -- -- 42
2018-08-28 00:00:00 20.8 2 Sudeste 9 Sudeste 0 -- -- 41
2018-08-27 23:00:00 23.4 5 Norte 18 Oeste 0 -- -- 35
2018-08-27 22:00:00 26.9 12 Oeste 24 Sudoeste 0 -- -- 28
2018-08-27 21:00:00 30.2 16 Sudoeste 24 Sudoeste 0 -- -- 24
2018-08-27 20:00:00 30.5 10 Sudoeste 31 Sudoeste 0 -- -- 24
2018-08-27 19:00:00 31.2 24 Sudoeste 42 Sudoeste 0 -- -- 22
2018-08-27 18:00:00 32.6 15 Sur 23 Sur 0 -- -- 24
2018-08-27 17:00:00 32.5 10 Sudoeste 26 Sudoeste 0 -- -- 24
2018-08-27 16:00:00 32.6 14 Sur 30 Sudoeste 0 -- -- 23
2018-08-27 15:00:00 31.3 12 Sudeste 21 Sur 0 -- -- 29
2018-08-27 14:00:00 29.6 4 Este 15 Este 0 -- -- 35
2018-08-27 13:00:00 27.1 8 Nordeste 17 Este 0 -- -- 41
2018-08-27 12:00:00 24.7 6 Norte 15 Norte 0 -- -- 48
2018-08-27 11:00:00 21.9 9 Norte 18 Norte 0 -- -- 55
2018-08-27 10:00:00 19.9 11 Nordeste 18 Norte 0 -- -- 60
2018-08-27 09:00:00 17.1 10 Noroeste 14 Noroeste 0 -- -- 73
2018-08-27 08:00:00 13.4 10 Noroeste 13 Noroeste 0 -- -- 82
2018-08-27 07:00:00 13.4 11 Noroeste 13 Noroeste 0 -- -- 81
2018-08-27 06:00:00 13.8 8 Noroeste 11 Noroeste 0 -- -- 76
2018-08-27 05:00:00 14.8 6 Noroeste 10 Oeste 0 -- -- 72
2018-08-27 04:00:00 16.5 4 Noroeste 13 Oeste 0 -- -- 66
2018-08-27 03:00:00 16.5 12 Oeste 14 Oeste 0 -- -- 67
2018-08-27 02:00:00 17 9 Noroeste 13 Oeste 0 -- -- 59
2018-08-27 01:00:00 18.6 10 Oeste 13 Oeste 0 -- -- 53
2018-08-27 00:00:00 19.6 11 Oeste 14 Oeste 0 -- -- 48
2018-08-26 23:00:00 20.9 3 Noroeste 13 Oeste 0 -- -- 43
2018-08-26 22:00:00 23.8 8 Noroeste 15 Noroeste 0 -- -- 38
2018-08-26 21:00:00 26.7 10 Sudoeste 14 Oeste 0 -- -- 33
2018-08-26 20:00:00 29.4 13 Oeste 25 Oeste 0 -- -- 28
2018-08-26 19:00:00 30.8 15 Oeste 27 Oeste 0 -- -- 25
2018-08-26 18:00:00 31 10 Sudoeste 27 Oeste 0 -- -- 26
2018-08-26 17:00:00 30.5 13 Sudoeste 27 Sudoeste 0 -- -- 26
2018-08-26 16:00:00 29.3 13 Oeste 25 Sudoeste 0 -- -- 29
2018-08-26 15:00:00 27 6 Norte 17 Este 0 -- -- 34
2018-08-26 14:00:00 25.2 6 Noroeste 16 Este 0 -- -- 37
2018-08-26 13:00:00 23 8 Este 17 Este 0 -- -- 43
2018-08-26 12:00:00 20.4 9 Nordeste 16 Este 0 -- -- 51
2018-08-26 11:00:00 18.4 6 Nordeste 18 Nordeste 0 -- -- 57
2018-08-26 10:00:00 16.3 10 Nordeste 17 Nordeste 0 -- -- 64
2018-08-26 09:00:00 13.3 6 Noroeste 11 Noroeste 0 -- -- 77
2018-08-26 08:00:00 10.5 9 Noroeste 12 Noroeste 0 -- -- 85
2018-08-26 07:00:00 11.2 8 Noroeste 12 Noroeste 0 -- -- 83
2018-08-26 06:00:00 11.6 8 Noroeste 13 Noroeste 0 -- -- 81
2018-08-26 05:00:00 12.1 9 Noroeste 12 Noroeste 0 -- -- 79
2018-08-26 04:00:00 12.5 7 Norte 10 Nordeste 0 -- -- 75
2018-08-26 03:00:00 13.6 8 Nordeste 12 Nordeste 0 -- -- 70
2018-08-26 02:00:00 14.9 10 Este 19 Nordeste 0 -- -- 63
2018-08-26 01:00:00 16.4 12 Este 22 Nordeste 0 -- -- 59
2018-08-26 00:00:00 18.3 12 Este 25 Nordeste 0 -- -- 56
2018-08-25 23:00:00 18 9 Noroeste 12 Noroeste 0 -- -- 45
2018-08-25 22:00:00 20.9 0 Calma 6 Sudeste 0 -- -- 37
2018-08-25 21:00:00 24.3 5 Sudeste 14 Este 0 -- -- 35
2018-08-25 20:00:00 26.6 9 Este 15 Sudeste 0 -- -- 28
2018-08-25 19:00:00 27.3 9 Este 19 Este 0 -- -- 26
2018-08-25 18:00:00 27.6 9 Este 19 Este 0 -- -- 25
2018-08-25 17:00:00 26.8 10 Este 20 Nordeste 0 -- -- 28
2018-08-25 16:00:00 26.3 10 Nordeste 23 Nordeste 0 -- -- 32
2018-08-25 15:00:00 24.8 8 Nordeste 18 Nordeste 0 -- -- 37
2018-08-25 14:00:00 23.2 6 Nordeste 17 Nordeste 0 -- -- 44
2018-08-25 13:00:00 21.6 8 Este 21 Nordeste 0 -- -- 49
2018-08-25 12:00:00 20.2 9 Nordeste 19 Este 0 -- -- 53
2018-08-25 11:00:00 17.7 6 Este 21 Nordeste 0 -- -- 63
2018-08-25 10:00:00 16 13 Nordeste 20 Nordeste 0 -- -- 69
2018-08-25 09:00:00 13.7 7 Norte 14 Norte 0 -- -- 82
2018-08-25 08:00:00 11.4 8 Noroeste 11 Noroeste 0 -- -- 88
2018-08-25 07:00:00 12.3 8 Noroeste 13 Norte 0 -- -- 85
2018-08-25 06:00:00 12.8 7 Norte 15 Norte 0 -- -- 83
2018-08-25 05:00:00 13.1 8 Norte 13 Norte 0 -- -- 84
2018-08-25 04:00:00 13.8 8 Norte 12 Norte 0 -- -- 81
2018-08-25 03:00:00 14.5 5 Nordeste 18 Nordeste 0 -- -- 76
2018-08-25 02:00:00 15.8 13 Nordeste 26 Este 0 -- -- 73
2018-08-25 01:00:00 16.9 12 Nordeste 26 Este 0 -- -- 69
2018-08-25 00:00:00 18.4 6 Nordeste 16 Nordeste 0 -- -- 62
2018-08-24 23:00:00 19.6 13 Oeste 16 Oeste 0 -- -- 46
2018-08-24 22:00:00 23.2 6 Oeste 14 Sudeste 0 -- -- 31
2018-08-24 21:00:00 26.3 12 Sudeste 24 Este 0 -- -- 28
2018-08-24 20:00:00 28.6 13 Este 22 Sudeste 0 -- -- 29
2018-08-24 19:00:00 29.5 11 Este 22 Sudeste 0 -- -- 28
2018-08-24 18:00:00 29.6 13 Sudeste 22 Sudeste 0 -- -- 29
2018-08-24 17:00:00 29 8 Este 26 Sudeste 0 -- -- 31
2018-08-24 16:00:00 27.8 8 Nordeste 20 Nordeste 0 -- -- 33
2018-08-24 15:00:00 26.6 7 Este 21 Nordeste 0 -- -- 37
2018-08-24 14:00:00 25.1 4 Noroeste 23 Nordeste 0 -- -- 40
2018-08-24 13:00:00 23.3 9 Este 18 Nordeste 0 -- -- 48
2018-08-24 12:00:00 20.8 8 Nordeste 18 Nordeste 0 -- -- 58
2018-08-24 11:00:00 18.9 14 Nordeste 22 Nordeste 0 -- -- 65
2018-08-24 10:00:00 17.9 12 Nordeste 18 Nordeste 0 -- -- 70
2018-08-24 09:00:00 14.8 7 Noroeste 12 Noroeste 0 -- -- 84
2018-08-24 08:00:00 12.1 10 Noroeste 12 Noroeste 0 -- -- 91
2018-08-24 07:00:00 12.3 7 Noroeste 12 Noroeste 0 -- -- 86
2018-08-24 06:00:00 12.7 7 Oeste 10 Noroeste 0 -- -- 87
2018-08-24 05:00:00 14.7 4 Norte 8 Nordeste 0 -- -- 81
2018-08-24 04:00:00 16.2 4 Nordeste 9 Nordeste 0 -- -- 78
2018-08-24 03:00:00 17.1 3 Norte 7 Nordeste 0 -- -- 74
2018-08-24 02:00:00 18.5 5 Este 18 Nordeste 0 -- -- 69
2018-08-24 01:00:00 20.1 8 Nordeste 16 Nordeste 0 -- -- 57
2018-08-24 00:00:00 21.9 8 Nordeste 22 Norte 0 -- -- 43
2018-08-23 23:00:00 24.7 14 Norte 29 Norte 0 -- -- 36
2018-08-23 22:00:00 26.6 15 Norte 26 Norte 0 -- -- 35
2018-08-23 21:00:00 28.3 9 Norte 17 Norte 0 -- -- 33
2018-08-23 20:00:00 30.1 6 Nordeste 31 Nordeste 0 -- -- 29
2018-08-23 19:00:00 31.9 25 Norte 36 Norte 0 -- -- 29
2018-08-23 18:00:00 33 6 Nordeste 18 Sudeste 0 -- -- 27
2018-08-23 17:00:00 32.5 5 Sudeste 26 Sudeste 0 -- -- 29
2018-08-23 16:00:00 31.9 5 Nordeste 18 Oeste 0 -- -- 30
2018-08-23 15:00:00 31.3 9 Nordeste 18 Nordeste 0 -- -- 33
2018-08-23 14:00:00 29.8 8 Nordeste 13 Nordeste 0 -- -- 40
2018-08-23 13:00:00 27.9 6 Norte 17 Norte 0 -- -- 45
2018-08-23 12:00:00 25.6 9 Nordeste 21 Norte 0 -- -- 54
2018-08-23 11:00:00 23.3 8 Nordeste 14 Nordeste 0 -- -- 59
2018-08-23 10:00:00 21.2 9 Nordeste 14 Norte 0 -- -- 63
2018-08-23 09:00:00 18.6 7 Noroeste 10 Oeste 0 -- -- 69
2018-08-23 08:00:00 14.8 6 Oeste 9 Oeste 0 -- -- 79
2018-08-23 07:00:00 15.1 6 Oeste 10 Oeste 0 -- -- 76
2018-08-23 06:00:00 15.8 7 Noroeste 9 Noroeste 0 -- -- 72
2018-08-23 05:00:00 17 5 Noroeste 13 Norte 0 -- -- 66
2018-08-23 04:00:00 18.5 10 Noroeste 15 Noroeste 0 -- -- 61
2018-08-23 03:00:00 17 5 Oeste 8 Oeste 0 -- -- 61
2018-08-23 02:00:00 18.9 4 Oeste 10 Noroeste 0 -- -- 53
2018-08-23 01:00:00 21.8 6 Oeste 28 Noroeste 0 -- -- 46
2018-08-23 00:00:00 23.8 12 Noroeste 32 Oeste 0 -- -- 42